createdAt,value
2018-05-02T00:01:43.655Z,3.00
2018-05-02T00:04:12.261Z,3.93
2018-05-02T00:06:40.914Z,4.70
2018-05-02T00:09:09.298Z,3.23
2018-05-02T00:11:38.072Z,3.70
2018-05-02T00:14:06.896Z,3.70
2018-05-02T00:16:35.351Z,4.20
2018-05-02T00:19:03.983Z,4.10
2018-05-02T00:21:32.431Z,5.07
2018-05-02T00:24:01.113Z,4.50
2018-05-02T00:26:29.706Z,3.70
2018-05-02T00:28:58.152Z,3.30
2018-05-02T00:31:26.660Z,4.40
2018-05-02T00:33:55.566Z,3.73
2018-05-02T00:36:24.322Z,4.57
2018-05-02T00:38:52.857Z,3.80
2018-05-02T00:41:21.492Z,3.57
2018-05-02T00:43:49.976Z,4.67
2018-05-02T00:46:19.062Z,3.77
2018-05-02T00:48:59.793Z,4.80
2018-05-02T00:51:28.326Z,4.23
2018-05-02T00:53:56.838Z,4.23
2018-05-02T00:56:25.399Z,3.80
2018-05-02T00:58:54.063Z,4.57
2018-05-02T01:01:22.615Z,3.10
2018-05-02T01:03:51.144Z,4.13
2018-05-02T01:06:19.603Z,3.77
2018-05-02T01:08:48.012Z,3.67
2018-05-02T01:11:16.557Z,5.10
2018-05-02T01:13:44.889Z,4.53
2018-05-02T01:16:13.841Z,5.10
2018-05-02T01:18:42.442Z,5.07
2018-05-02T01:21:11.202Z,4.30
2018-05-02T01:23:39.732Z,4.30
2018-05-02T01:26:08.392Z,4.20
2018-05-02T01:28:36.846Z,3.80
2018-05-02T01:31:05.433Z,6.13
2018-05-02T01:33:33.906Z,3.87
2018-05-02T01:36:02.505Z,3.90
2018-05-02T01:38:31.178Z,5.60
2018-05-02T01:40:59.606Z,5.90
2018-05-02T01:43:28.342Z,5.60
2018-05-02T01:45:56.373Z,4.90
2018-05-02T01:48:24.773Z,5.40
2018-05-02T01:50:53.273Z,4.37
2018-05-02T01:53:22.151Z,10.13
2018-05-02T01:55:50.949Z,4.63
2018-05-02T01:58:19.367Z,6.90
2018-05-02T02:00:47.810Z,6.13
2018-05-02T02:03:16.108Z,6.30
2018-05-02T02:05:44.786Z,5.17
2018-05-02T02:08:13.179Z,4.70
2018-05-02T02:10:41.801Z,6.10
2018-05-02T02:13:10.530Z,4.60
2018-05-02T02:15:39.101Z,4.13
2018-05-02T02:18:07.898Z,4.90
2018-05-02T02:20:36.370Z,4.97
2018-05-02T02:23:04.954Z,4.70
2018-05-02T02:25:33.534Z,6.03
2018-05-02T02:28:02.117Z,3.80
2018-05-02T02:30:30.597Z,4.50
2018-05-02T02:32:59.167Z,4.30
2018-05-02T02:35:27.799Z,4.37
2018-05-02T02:37:56.456Z,5.33
2018-05-02T02:40:25.035Z,5.03
2018-05-02T02:42:53.650Z,5.17
2018-05-02T02:45:22.424Z,3.73
2018-05-02T02:47:51.188Z,4.70
2018-05-02T02:50:20.025Z,3.60
2018-05-02T02:52:48.717Z,5.10
2018-05-02T02:55:17.607Z,5.60
2018-05-02T02:57:46.056Z,4.87
2018-05-02T03:00:14.513Z,4.97
2018-05-02T03:02:43.115Z,4.60
2018-05-02T03:05:11.891Z,5.10
2018-05-02T03:07:40.645Z,4.80
2018-05-02T03:10:09.074Z,3.97
2018-05-02T03:12:37.639Z,3.93
2018-05-02T03:15:06.135Z,4.80
2018-05-02T03:17:34.807Z,4.27
2018-05-02T03:20:03.789Z,4.77
2018-05-02T03:22:32.280Z,4.00
2018-05-02T03:25:00.967Z,5.03
2018-05-02T03:27:29.374Z,4.47
2018-05-02T03:29:57.935Z,4.27
2018-05-02T03:32:26.603Z,4.83
2018-05-02T03:34:54.933Z,4.90
2018-05-02T03:37:23.771Z,4.13
2018-05-02T03:39:52.442Z,5.57
2018-05-02T03:42:21.058Z,5.13
2018-05-02T03:44:49.737Z,5.83
2018-05-02T03:47:18.201Z,4.33
2018-05-02T03:49:47.889Z,4.73
2018-05-02T03:52:16.197Z,4.70
2018-05-02T03:54:44.776Z,4.73
2018-05-02T03:57:13.361Z,5.43
2018-05-02T03:59:53.782Z,5.63
2018-05-02T04:02:34.169Z,4.57
2018-05-02T04:05:15.386Z,6.40
2018-05-02T04:07:44.188Z,4.73
2018-05-02T04:10:12.665Z,5.37
2018-05-02T04:12:41.211Z,5.93
2018-05-02T04:15:10.122Z,4.67
2018-05-02T04:17:38.768Z,4.73
2018-05-02T04:20:07.557Z,5.60
2018-05-02T04:22:36.562Z,5.70
2018-05-02T04:25:04.995Z,5.30
2018-05-02T04:27:33.434Z,5.30
2018-05-02T04:30:02.207Z,6.17
2018-05-02T04:32:30.787Z,7.07
2018-05-02T04:34:59.210Z,7.00
2018-05-02T04:37:27.876Z,6.47
2018-05-02T04:39:56.335Z,6.13
2018-05-02T04:42:24.825Z,5.30
2018-05-02T04:44:53.609Z,6.57
2018-05-02T04:47:22.390Z,9.50
2018-05-02T04:49:50.924Z,9.27
2018-05-02T04:52:19.471Z,8.87
2018-05-02T04:54:48.238Z,7.87
2018-05-02T04:57:16.830Z,7.50
2018-05-02T04:59:45.332Z,7.17
2018-05-02T05:02:13.987Z,6.43
2018-05-02T05:04:42.589Z,7.43
2018-05-02T05:07:11.292Z,7.60
2018-05-02T05:09:39.310Z,7.93
2018-05-02T05:12:07.359Z,7.47
2018-05-02T05:14:35.416Z,7.30
2018-05-02T05:17:03.471Z,6.77
2018-05-02T05:19:31.582Z,8.17
2018-05-02T05:22:00.021Z,7.37
2018-05-02T05:24:28.030Z,6.00
2018-05-02T05:26:56.036Z,6.73
2018-05-02T05:29:24.045Z,6.70
2018-05-02T05:31:52.080Z,7.90
2018-05-02T05:34:20.152Z,7.57
2018-05-02T05:36:48.195Z,7.80
2018-05-02T05:39:16.213Z,6.90
2018-05-02T05:41:44.213Z,8.37
2018-05-02T05:44:12.210Z,7.77
2018-05-02T05:46:40.465Z,6.60
2018-05-02T05:49:08.551Z,7.03
2018-05-02T05:51:36.808Z,5.47
2018-05-02T05:54:05.089Z,7.83
2018-05-02T05:56:33.057Z,7.27
2018-05-02T05:59:01.173Z,10.43
2018-05-02T06:01:29.183Z,7.43
2018-05-02T06:03:57.156Z,7.03
2018-05-02T06:06:25.166Z,7.00
2018-05-02T06:08:53.203Z,7.00
2018-05-02T06:11:21.211Z,6.30
2018-05-02T06:13:49.296Z,6.60
2018-05-02T06:16:17.366Z,6.63
2018-05-02T06:18:45.445Z,7.00
2018-05-02T06:21:13.443Z,5.97
2018-05-02T06:23:41.777Z,6.47
2018-05-02T06:26:09.838Z,7.23
2018-05-02T06:28:37.850Z,7.73
2018-05-02T06:31:05.915Z,7.73
2018-05-02T06:33:33.976Z,6.90
2018-05-02T06:36:02.180Z,6.30
2018-05-02T06:38:30.180Z,7.30
2018-05-02T06:40:58.243Z,9.97
2018-05-02T06:43:26.366Z,7.00
2018-05-02T06:45:54.436Z,6.30
2018-05-02T06:48:22.571Z,7.00
2018-05-02T06:50:50.567Z,7.13
2018-05-02T06:53:18.607Z,8.00
2018-05-02T06:55:46.687Z,8.17
2018-05-02T06:58:14.789Z,6.20
2018-05-02T07:00:43.943Z,6.57
2018-05-02T07:03:11.970Z,7.70
2018-05-02T07:05:40.021Z,7.13
2018-05-02T07:08:08.084Z,7.70
2018-05-02T07:10:36.194Z,7.63
2018-05-02T07:13:04.150Z,6.63
2018-05-02T07:15:32.214Z,6.20
2018-05-02T07:18:00.365Z,7.20
2018-05-02T07:20:28.430Z,5.70
2018-05-02T07:22:56.473Z,5.57
2018-05-02T07:25:24.728Z,8.33
2018-05-02T07:27:52.747Z,6.33
2018-05-02T07:30:20.772Z,7.27
2018-05-02T07:32:48.912Z,7.10
2018-05-02T07:35:16.991Z,7.50
2018-05-02T07:37:45.030Z,6.07
2018-05-02T07:40:13.005Z,8.37
2018-05-02T07:42:41.003Z,6.97
2018-05-02T07:45:08.975Z,6.80
2018-05-02T07:47:37.054Z,7.70
2018-05-02T07:50:05.059Z,6.90
2018-05-02T07:52:33.165Z,6.73
2018-05-02T07:55:01.102Z,7.30
2018-05-02T07:57:29.111Z,7.20
2018-05-02T07:59:57.171Z,7.13
2018-05-02T08:02:25.164Z,6.40
2018-05-02T08:04:53.151Z,7.37
2018-05-02T08:07:21.282Z,8.33
2018-05-02T08:09:49.339Z,6.33
2018-05-02T08:12:17.551Z,6.53
2018-05-02T08:14:46.387Z,6.17
2018-05-02T08:17:14.966Z,6.37
2018-05-02T08:19:43.455Z,7.40
2018-05-02T08:22:11.912Z,7.50
2018-05-02T08:24:40.224Z,6.73
2018-05-02T08:27:08.402Z,7.07
2018-05-02T08:29:36.421Z,7.30
2018-05-02T08:32:04.501Z,5.80
2018-05-02T08:34:32.536Z,6.60
2018-05-02T08:37:00.575Z,7.60
2018-05-02T08:39:28.555Z,5.70
2018-05-02T08:41:56.667Z,5.80
2018-05-02T08:44:24.759Z,4.70
2018-05-02T08:46:52.721Z,7.00
2018-05-02T08:49:20.750Z,6.47
2018-05-02T08:51:48.786Z,5.67
2018-05-02T08:54:16.905Z,5.93
2018-05-02T08:56:44.946Z,5.70
2018-05-02T08:59:12.939Z,6.10
2018-05-02T09:01:40.980Z,5.57
2018-05-02T09:04:08.971Z,5.17
2018-05-02T09:06:36.951Z,4.90
2018-05-02T09:09:05.056Z,5.20
2018-05-02T09:11:33.042Z,5.47
2018-05-02T09:14:01.059Z,5.20
2018-05-02T09:16:29.098Z,5.60
2018-05-02T09:18:57.439Z,4.90
2018-05-02T09:21:25.457Z,5.10
2018-05-02T09:23:54.112Z,4.90
2018-05-02T09:26:22.123Z,5.27
2018-05-02T09:28:50.359Z,4.63
2018-05-02T09:31:18.418Z,4.77
2018-05-02T09:33:46.389Z,5.33
2018-05-02T09:36:14.343Z,5.70
2018-05-02T09:38:42.397Z,5.03
2018-05-02T09:41:10.417Z,4.43
2018-05-02T09:43:38.476Z,4.20
2018-05-02T09:46:06.491Z,4.70
2018-05-02T09:48:34.594Z,4.00
2018-05-02T09:51:02.718Z,4.00
2018-05-02T09:53:30.862Z,4.93
2018-05-02T09:55:58.950Z,4.70
2018-05-02T09:58:26.944Z,4.63
2018-05-02T10:00:54.955Z,4.50
2018-05-02T10:03:22.977Z,7.17
2018-05-02T10:05:50.978Z,5.87
2018-05-02T10:08:19.007Z,4.70
2018-05-02T10:10:46.999Z,5.10
2018-05-02T10:13:15.123Z,5.50
2018-05-02T10:15:43.154Z,5.03
2018-05-02T10:18:11.266Z,4.43
2018-05-02T10:20:39.353Z,3.80
2018-05-02T10:23:07.366Z,6.57
2018-05-02T10:25:35.424Z,5.27
2018-05-02T10:28:03.384Z,4.53
2018-05-02T10:30:31.637Z,4.87
2018-05-02T10:32:59.661Z,3.97
2018-05-02T10:35:27.707Z,4.63
2018-05-02T10:37:55.732Z,6.60
2018-05-02T10:40:23.691Z,4.43
2018-05-02T10:42:51.755Z,5.70
2018-05-02T10:45:19.785Z,4.10
2018-05-02T10:47:47.835Z,5.03
2018-05-02T10:50:15.887Z,5.37
2018-05-02T10:52:43.923Z,4.87
2018-05-02T10:55:11.962Z,5.37
2018-05-02T10:57:39.956Z,4.80
2018-05-02T11:00:07.934Z,4.70
2018-05-02T11:02:36.061Z,5.57
2018-05-02T11:05:04.137Z,5.10
2018-05-02T11:07:32.195Z,5.10
2018-05-02T11:10:00.197Z,5.10
2018-05-02T11:12:28.313Z,4.30
2018-05-02T11:14:56.324Z,4.93
2018-05-02T11:17:24.370Z,5.63
2018-05-02T11:19:52.362Z,5.10
2018-05-02T11:22:20.375Z,4.90
2018-05-02T11:24:48.330Z,4.80
2018-05-02T11:27:16.317Z,6.20
2018-05-02T11:29:44.453Z,5.90
2018-05-02T11:32:12.937Z,4.63
2018-05-02T11:34:40.980Z,5.10
2018-05-02T11:37:08.977Z,4.73
2018-05-02T11:39:37.169Z,6.73
2018-05-02T11:42:05.183Z,6.30
2018-05-02T11:44:33.113Z,5.30
2018-05-02T11:47:01.125Z,5.80
2018-05-02T11:49:29.114Z,7.00
2018-05-02T11:51:57.113Z,7.10
2018-05-02T11:54:25.077Z,6.03
2018-05-02T11:56:53.214Z,5.47
2018-05-02T11:59:21.276Z,5.83
2018-05-02T12:01:49.288Z,5.67
2018-05-02T12:04:17.354Z,5.73
2018-05-02T12:06:45.378Z,6.17
2018-05-02T12:09:13.404Z,4.60
2018-05-02T12:11:41.353Z,5.20
2018-05-02T12:14:09.343Z,4.53
2018-05-02T12:16:37.412Z,5.20
2018-05-02T12:19:05.442Z,3.80
2018-05-02T12:21:33.574Z,3.77
2018-05-02T12:24:01.566Z,5.00
2018-05-02T12:26:29.496Z,5.50
2018-05-02T12:28:57.593Z,4.90
2018-05-02T12:31:25.609Z,5.50
2018-05-02T12:33:54.115Z,6.40
2018-05-02T12:36:22.254Z,5.40
2018-05-02T12:38:50.311Z,5.13
2018-05-02T12:41:18.284Z,5.40
2018-05-02T12:43:46.290Z,5.50
2018-05-02T12:46:14.361Z,6.20
2018-05-02T12:48:42.418Z,4.10
2018-05-02T12:51:10.484Z,4.47
2018-05-02T12:53:38.543Z,4.83
2018-05-02T12:56:06.623Z,5.50
2018-05-02T12:58:34.619Z,5.53
2018-05-02T13:01:02.817Z,4.13
2018-05-02T13:03:30.829Z,4.70
2018-05-02T13:05:58.826Z,5.33
2018-05-02T13:08:26.844Z,5.60
2018-05-02T13:10:54.808Z,5.37
2018-05-02T13:13:22.786Z,5.47
2018-05-02T13:15:50.842Z,4.90
2018-05-02T13:18:18.886Z,5.10
2018-05-02T13:20:46.924Z,6.40
2018-05-02T13:23:14.904Z,5.80
2018-05-02T13:25:42.941Z,5.70
2018-05-02T13:28:11.018Z,6.30
2018-05-02T13:30:38.983Z,5.40
2018-05-02T13:33:07.110Z,5.67
2018-05-02T13:35:35.488Z,5.67
2018-05-02T13:38:03.577Z,5.10
2018-05-02T13:40:32.155Z,6.07
2018-05-02T13:43:00.209Z,5.17
2018-05-02T13:45:28.211Z,5.37
2018-05-02T13:47:56.272Z,6.57
2018-05-02T13:50:24.477Z,6.10
2018-05-02T13:52:52.430Z,5.03
2018-05-02T13:55:20.539Z,9.47
2018-05-02T13:57:48.598Z,5.30
2018-05-02T14:00:16.629Z,6.20
2018-05-02T14:02:44.665Z,5.80
2018-05-02T14:05:12.711Z,5.50
2018-05-02T14:07:40.788Z,5.80
2018-05-02T14:10:08.958Z,6.37
2018-05-02T14:12:37.014Z,5.13
2018-05-02T14:15:05.298Z,5.80
2018-05-02T14:17:33.415Z,5.50
2018-05-02T14:20:01.460Z,8.00
2018-05-02T14:22:29.716Z,9.87
2018-05-02T14:24:57.749Z,6.20
2018-05-02T14:27:25.834Z,6.47
2018-05-02T14:29:53.885Z,6.73
2018-05-02T14:32:21.960Z,6.17
2018-05-02T14:34:49.960Z,7.27
2018-05-02T14:37:18.284Z,7.27
2018-05-02T14:39:46.320Z,7.07
2018-05-02T14:42:14.435Z,6.33
2018-05-02T14:44:42.488Z,6.77
2018-05-02T14:47:10.546Z,4.50
2018-05-02T14:49:38.654Z,4.60
2018-05-02T14:52:06.805Z,5.23
2018-05-02T14:54:34.952Z,3.73
2018-05-02T14:57:03.008Z,4.03
2018-05-02T14:59:31.015Z,4.10
2018-05-02T15:02:01.156Z,4.80
2018-05-02T15:04:29.188Z,8.40
2018-05-02T15:06:57.250Z,5.80
2018-05-02T15:09:25.341Z,6.93
2018-05-02T15:11:53.456Z,6.47
2018-05-02T15:14:21.610Z,7.43
2018-05-02T15:16:49.543Z,6.37
2018-05-02T15:19:17.539Z,6.07
2018-05-02T15:21:45.608Z,6.73
2018-05-02T15:24:13.598Z,4.00
2018-05-02T15:26:41.635Z,4.60
2018-05-02T15:29:09.641Z,5.17
2018-05-02T15:31:37.682Z,4.20
2018-05-02T15:34:05.821Z,4.30
2018-05-02T15:36:33.890Z,6.13
2018-05-02T15:39:02.449Z,5.57
2018-05-02T15:41:30.512Z,3.97
2018-05-02T15:43:58.629Z,5.40
2018-05-02T16:30:06.555Z,3.20
2018-05-02T16:32:34.613Z,3.63
2018-05-02T16:35:03.220Z,3.93
2018-05-02T16:37:31.252Z,3.80
2018-05-02T16:39:59.643Z,3.20
2018-05-02T16:42:27.699Z,3.30
2018-05-02T16:44:55.829Z,3.30
2018-05-02T16:47:23.888Z,4.73
2018-05-02T16:49:51.979Z,5.10
2018-05-02T16:52:19.992Z,4.43
2018-05-02T16:54:48.068Z,5.00
2018-05-02T16:57:16.186Z,4.03
2018-05-02T16:59:44.193Z,4.17
2018-05-02T17:02:12.296Z,3.37
2018-05-02T17:04:40.437Z,3.63
2018-05-02T17:07:08.647Z,4.67
2018-05-02T17:09:36.683Z,4.17
2018-05-02T17:12:04.749Z,3.93
2018-05-02T17:14:32.781Z,4.20
2018-05-02T17:17:00.841Z,3.50
2018-05-02T17:19:28.847Z,4.13
2018-05-02T17:21:57.044Z,4.50
2018-05-02T17:24:24.973Z,5.07
2018-05-02T17:26:53.106Z,4.30
2018-05-02T17:29:21.225Z,3.90
2018-05-02T17:31:49.423Z,4.40
2018-05-02T17:34:17.492Z,5.27
2018-05-02T17:36:45.532Z,3.73
2018-05-02T17:39:13.553Z,3.93
2018-05-02T17:41:42.101Z,4.27
2018-05-02T17:44:10.065Z,4.17
2018-05-02T17:46:38.081Z,5.00
2018-05-02T17:49:06.089Z,4.37
2018-05-02T17:51:34.099Z,4.37
2018-05-02T17:54:02.153Z,4.47
2018-05-02T17:56:30.158Z,5.23
2018-05-02T17:58:58.247Z,5.57
2018-05-02T18:01:26.296Z,5.20
2018-05-02T18:03:54.273Z,5.07
2018-05-02T18:06:22.270Z,6.63
2018-05-02T18:08:50.298Z,5.83
2018-05-02T18:11:18.278Z,6.23
2018-05-02T18:13:46.313Z,6.03
2018-05-02T18:16:14.377Z,5.57
2018-05-02T18:18:42.391Z,5.00
2018-05-02T18:21:10.617Z,6.37
2018-05-02T18:23:38.584Z,5.67
2018-05-02T18:26:06.635Z,6.13
2018-05-02T18:28:34.671Z,6.03
2018-05-02T18:31:02.837Z,4.90
2018-05-02T18:33:30.868Z,4.73
2018-05-02T18:35:58.840Z,5.47
2018-05-02T18:38:26.854Z,5.47
2018-05-02T18:40:54.835Z,5.83
2018-05-02T18:43:23.359Z,5.00
2018-05-02T18:45:51.377Z,5.77
2018-05-02T18:48:19.392Z,5.60
2018-05-02T18:50:47.595Z,6.40
2018-05-02T18:53:15.690Z,4.80
2018-05-02T18:55:43.681Z,6.30
2018-05-02T18:58:11.777Z,5.87
2018-05-02T19:00:39.739Z,6.17
2018-05-02T19:03:08.409Z,7.70
2018-05-02T19:05:36.429Z,7.23
2018-05-02T19:08:04.425Z,4.80
2018-05-02T19:10:32.492Z,6.30
2018-05-02T19:13:00.517Z,6.33
2018-05-02T19:15:28.656Z,7.27
2018-05-02T19:18:02.368Z,6.20
2018-05-02T19:20:37.026Z,7.27
2018-05-02T19:23:04.989Z,6.17
2018-05-02T19:25:40.353Z,6.83
2018-05-02T19:28:08.402Z,7.10
2018-05-02T19:30:36.439Z,5.67
2018-05-02T19:33:10.006Z,6.43
2018-05-02T19:35:38.172Z,6.37
2018-05-02T19:38:06.118Z,6.87
2018-05-02T19:40:39.697Z,6.67
2018-05-02T19:43:13.402Z,6.50
2018-05-02T19:45:42.055Z,6.33
2018-05-02T19:48:10.037Z,6.57
2018-05-02T19:50:38.044Z,6.30
2018-05-02T19:53:06.112Z,6.03
2018-05-02T19:55:34.212Z,6.37
2018-05-02T19:58:02.379Z,6.57
2018-05-02T20:00:35.985Z,6.53
2018-05-02T20:03:04.091Z,6.33
2018-05-02T20:05:32.072Z,7.60
2018-05-02T20:08:00.162Z,6.33
2018-05-02T20:10:33.823Z,7.20
2018-05-02T20:16:10.087Z,6.40
2018-05-02T20:18:38.106Z,6.20
2018-05-02T20:21:06.274Z,6.70
2018-05-02T20:23:34.301Z,6.70
2018-05-02T20:26:02.807Z,6.90
2018-05-02T20:28:30.833Z,5.93
2018-05-02T20:30:58.886Z,6.20
2018-05-02T20:33:27.009Z,6.23
2018-05-02T20:35:55.064Z,5.83
2018-05-02T20:38:23.086Z,7.33
2018-05-02T20:40:51.131Z,5.37
2018-05-02T20:43:19.128Z,5.93
2018-05-02T20:45:47.403Z,5.63
2018-05-02T20:48:15.364Z,5.50
2018-05-02T20:50:43.358Z,5.90
2018-05-02T20:53:11.385Z,7.60
2018-05-02T20:55:39.401Z,5.87
2018-05-02T20:58:07.418Z,5.57
2018-05-02T21:00:35.494Z,5.47
2018-05-02T21:03:03.489Z,6.10
2018-05-02T21:05:31.477Z,6.40
2018-05-02T21:07:59.491Z,6.60
2018-05-02T21:10:27.506Z,6.20
2018-05-02T21:12:55.536Z,4.70
2018-05-02T21:15:23.543Z,4.90
2018-05-02T21:17:51.653Z,5.53
2018-05-02T21:20:19.619Z,6.10
2018-05-02T21:22:47.604Z,5.70
2018-05-02T21:25:15.602Z,5.50
2018-05-02T21:27:43.610Z,4.27
2018-05-02T21:30:11.647Z,5.53
2018-05-02T21:32:39.665Z,5.30
2018-05-02T21:35:07.681Z,5.37
2018-05-02T21:37:35.698Z,4.60
2018-05-02T21:40:03.717Z,5.67
2018-05-02T21:42:31.841Z,6.23
2018-05-02T21:44:59.871Z,6.30
2018-05-02T21:47:28.304Z,6.70
2018-05-02T21:49:56.360Z,6.73
2018-05-02T21:52:24.359Z,5.67
2018-05-02T21:54:52.378Z,4.80
2018-05-02T21:57:20.405Z,5.10
2018-05-02T21:59:48.409Z,6.20
2018-05-02T22:02:16.497Z,5.10
2018-05-02T22:04:44.501Z,5.30
2018-05-02T22:07:12.510Z,5.50
2018-05-02T22:09:40.491Z,5.80
2018-05-02T22:12:08.475Z,5.33
2018-05-02T22:14:36.479Z,6.10
2018-05-02T22:17:04.514Z,5.63
2018-05-02T22:19:32.526Z,4.53
2018-05-02T22:22:00.563Z,5.77
2018-05-02T22:24:28.523Z,5.47
2018-05-02T22:26:56.561Z,5.83
2018-05-02T22:29:24.494Z,5.10
2018-05-02T22:31:52.444Z,5.33
2018-05-02T22:34:20.419Z,5.73
2018-05-02T22:36:48.467Z,5.60
2018-05-02T22:39:16.518Z,5.10
2018-05-02T22:41:44.543Z,6.10
2018-05-02T22:44:12.583Z,4.83
2018-05-02T22:46:40.632Z,5.90
2018-05-02T22:49:08.798Z,5.53
2018-05-02T22:51:36.794Z,4.53
2018-05-02T22:54:04.935Z,4.37
2018-05-02T22:56:32.962Z,5.67
2018-05-02T22:59:00.987Z,4.83
2018-05-02T23:01:29.040Z,4.40
2018-05-02T23:03:57.034Z,6.10
2018-05-02T23:06:25.026Z,5.73
2018-05-02T23:08:53.047Z,4.53
2018-05-02T23:11:20.969Z,4.90
2018-05-02T23:13:48.996Z,5.43
2018-05-02T23:16:16.942Z,4.93
2018-05-02T23:18:44.977Z,5.13
2018-05-02T23:21:13.025Z,4.40
2018-05-02T23:23:41.041Z,5.40
2018-05-02T23:26:09.073Z,6.00
2018-05-02T23:28:37.031Z,5.33
2018-05-02T23:31:05.050Z,4.87
2018-05-02T23:33:33.053Z,5.20
2018-05-02T23:36:01.088Z,5.00
2018-05-02T23:38:29.097Z,5.37
2018-05-02T23:40:57.098Z,4.93
2018-05-02T23:43:25.144Z,5.10
2018-05-02T23:45:53.175Z,4.80
2018-05-02T23:48:21.122Z,5.60
2018-05-02T23:50:49.600Z,5.57
2018-05-02T23:53:17.649Z,5.37
2018-05-02T23:55:45.704Z,4.60
2018-05-02T23:58:13.743Z,5.00
